PWSweather.com
Personal Weather Stations
Station Observations
IFIFE35
InverkeithingGB

InverkeithingGB

Lat: 56.0317028, Lon: -3.4039751999999908

Elevation: 233

Station Type: DAVIS VANTAGE VUE

Latest ConditionsUpdated 7:50:00 AM GMT Thursday, Jul 18, 2019
Currently Today's Max Today's Min Today's Average
Temperature 58.8°F14.9°C 59.7°F15.4°C 52.2°F11.2°C 54.8°F12.7°C
Dew Point 54.6°F12.6°C 55.7°F13.2°C 50.4°F10.2°C 52.6°F11.4°C
Winds 3.0 mph S4.8 kmh S 4.0 mph -6.4 kmh - - 1.7 mph 2.7 kmh
Wind Gusts 7.0 mph11.3 kmh 11.0 mph17.7 kmh - -
Humidity 86% 95% 85% 93%
Pressure 29.39 in995.3 mb 29.39 in995.3 mb 29.37 in994.6 mb -
Precipitation - 0.04 in1.0 mm - -
Hour Temp Dew Point Humidity Winds Wind Gusts Pressure Precip Precip Rate Daily Precip Total
07:50 AM 58.8°F14.9°C 54.6°F12.6°C 86% 3.0 mph S4.8 kmh S 7.0 mph11.3 kmh 29.39 in995.3 mb 0.00 in0.0 mm 0.00 in0.0 mm 0.04 in1.0 mm
07:45 AM 58.9°F14.9°C 54.4°F12.4°C 85% 3.0 mph S4.8 kmh S 7.0 mph11.3 kmh 29.39 in995.3 mb 0.00 in0.0 mm 0.00 in0.0 mm 0.04 in1.0 mm
07:40 AM 59.1°F15.1°C 54.6°F12.6°C 85% 3.0 mph S4.8 kmh S 9.0 mph14.5 kmh 29.39 in995.3 mb 0.00 in0.0 mm 0.00 in0.0 mm 0.04 in1.0 mm
07:35 AM 59.3°F15.2°C 54.8°F12.7°C 85% 3.0 mph S4.8 kmh S 9.0 mph14.5 kmh 29.39 in995.3 mb 0.00 in0.0 mm 0.00 in0.0 mm 0.04 in1.0 mm
07:30 AM 59.5°F15.3°C 55.0°F12.8°C 85% 3.0 mph S4.8 kmh S 10.0 mph16.1 kmh 29.39 in995.3 mb 0.00 in0.0 mm 0.00 in0.0 mm 0.04 in1.0 mm
07:25 AM 59.7°F15.4°C 55.2°F12.9°C 85% 3.0 mph S4.8 kmh S 10.0 mph16.1 kmh 29.38 in994.9 mb 0.00 in0.0 mm 0.00 in0.0 mm 0.04 in1.0 mm
07:20 AM 59.7°F15.4°C 55.5°F13.1°C 86% 3.0 mph S4.8 kmh S 9.0 mph14.5 kmh 29.38 in994.9 mb 0.00 in0.0 mm 0.00 in0.0 mm 0.04 in1.0 mm
07:15 AM 59.5°F15.3°C 55.6°F13.1°C 87% 3.0 mph S4.8 kmh S 9.0 mph14.5 kmh 29.38 in994.9 mb 0.00 in0.0 mm 0.00 in0.0 mm 0.04 in1.0 mm
07:10 AM 59.2°F15.1°C 55.6°F13.1°C 88% 3.0 mph SSE4.8 kmh SSE 10.0 mph16.1 kmh 29.38 in994.9 mb 0.00 in0.0 mm 0.00 in0.0 mm 0.04 in1.0 mm
07:05 AM 58.9°F14.9°C 55.4°F13.0°C 88% 3.0 mph S4.8 kmh S 11.0 mph17.7 kmh 29.38 in994.9 mb 0.00 in0.0 mm 0.00 in0.0 mm 0.04 in1.0 mm
07:00 AM 58.5°F14.7°C 55.0°F12.8°C 88% 2.0 mph S3.2 kmh S 11.0 mph17.7 kmh 29.38 in994.9 mb 0.00 in0.0 mm 0.00 in0.0 mm 0.04 in1.0 mm
06:55 AM 58.5°F14.7°C 55.3°F12.9°C 89% 3.0 mph S4.8 kmh S 11.0 mph17.7 kmh 29.38 in994.9 mb 0.00 in0.0 mm 0.00 in0.0 mm 0.04 in1.0 mm
06:50 AM 58.5°F14.7°C 55.0°F12.8°C 88% 4.0 mph S6.4 kmh S 11.0 mph17.7 kmh 29.38 in994.9 mb 0.00 in0.0 mm 0.00 in0.0 mm 0.04 in1.0 mm
06:45 AM 58.6°F14.8°C 55.4°F13.0°C 89% 4.0 mph S6.4 kmh S 8.0 mph12.9 kmh 29.38 in994.9 mb 0.01 in0.3 mm 0.00 in0.0 mm 0.04 in1.0 mm
06:40 AM 58.4°F14.7°C 55.5°F13.1°C 90% 3.0 mph S4.8 kmh S 7.0 mph11.3 kmh 29.38 in994.9 mb 0.01 in0.3 mm 0.00 in0.0 mm 0.04 in1.0 mm
06:35 AM 58.0°F14.4°C 55.7°F13.2°C 92% 2.0 mph S3.2 kmh S 7.0 mph11.3 kmh 29.38 in994.9 mb 0.01 in0.3 mm 0.00 in0.0 mm 0.04 in1.0 mm
06:30 AM 57.4°F14.1°C 55.1°F12.8°C 92% 3.0 mph S4.8 kmh S 8.0 mph12.9 kmh 29.38 in994.9 mb 0.01 in0.3 mm 0.00 in0.0 mm 0.04 in1.0 mm
06:25 AM 56.7°F13.7°C 54.7°F12.6°C 93% 3.0 mph S4.8 kmh S 8.0 mph12.9 kmh 29.38 in994.9 mb 0.01 in0.3 mm 0.00 in0.0 mm 0.04 in1.0 mm
06:20 AM 56.2°F13.4°C 54.2°F12.3°C 93% 3.0 mph S4.8 kmh S 9.0 mph14.5 kmh 29.38 in994.9 mb 0.01 in0.3 mm 0.00 in0.0 mm 0.04 in1.0 mm
06:15 AM 55.7°F13.2°C 53.7°F12.1°C 93% 3.0 mph S4.8 kmh S 9.0 mph14.5 kmh 29.38 in994.9 mb 0.01 in0.3 mm 0.00 in0.0 mm 0.04 in1.0 mm
06:10 AM 55.5°F13.1°C 53.5°F11.9°C 93% 2.0 mph S3.2 kmh S 7.0 mph11.3 kmh 29.38 in994.9 mb 0.01 in0.3 mm 0.00 in0.0 mm 0.04 in1.0 mm
06:05 AM 55.5°F13.1°C 53.5°F11.9°C 93% 2.0 mph S3.2 kmh S 7.0 mph11.3 kmh 29.38 in994.9 mb 0.01 in0.3 mm 0.00 in0.0 mm 0.04 in1.0 mm
06:00 AM 55.5°F13.1°C 53.5°F11.9°C 93% 2.0 mph SSE3.2 kmh SSE 5.0 mph8.0 kmh 29.38 in994.9 mb 0.01 in0.3 mm 0.00 in0.0 mm 0.04 in1.0 mm
05:55 AM 55.5°F13.1°C 53.5°F11.9°C 93% 2.0 mph SSE3.2 kmh SSE 7.0 mph11.3 kmh 29.38 in994.9 mb 0.01 in0.3 mm 0.00 in0.0 mm 0.04 in1.0 mm
05:50 AM 55.6°F13.1°C 53.6°F12.0°C 93% 3.0 mph SSE4.8 kmh SSE 7.0 mph11.3 kmh 29.38 in994.9 mb 0.01 in0.3 mm 0.12 in3.0 mm 0.04 in1.0 mm
05:45 AM 55.8°F13.2°C 53.5°F11.9°C 92% 2.0 mph SSE3.2 kmh SSE 7.0 mph11.3 kmh 29.38 in994.9 mb 0.00 in0.0 mm 0.00 in0.0 mm 0.03 in0.8 mm
05:40 AM 56.1°F13.4°C 53.8°F12.1°C 92% 2.0 mph S3.2 kmh S 7.0 mph11.3 kmh 29.38 in994.9 mb 0.00 in0.0 mm 0.00 in0.0 mm 0.03 in0.8 mm
05:35 AM 56.2°F13.4°C 54.2°F12.3°C 93% 1.0 mph S1.6 kmh S 6.0 mph9.7 kmh 29.38 in994.9 mb 0.00 in0.0 mm 0.00 in0.0 mm 0.03 in0.8 mm
05:30 AM 56.1°F13.4°C 54.1°F12.3°C 93% 2.0 mph S3.2 kmh S 6.0 mph9.7 kmh 29.38 in994.9 mb 0.00 in0.0 mm 0.00 in0.0 mm 0.03 in0.8 mm
05:25 AM 55.7°F13.2°C 53.7°F12.1°C 93% 2.0 mph S3.2 kmh S 6.0 mph9.7 kmh 29.38 in994.9 mb 0.00 in0.0 mm 0.00 in0.0 mm 0.03 in0.8 mm
05:20 AM 55.3°F12.9°C 53.3°F11.8°C 93% 1.0 mph S1.6 kmh S 6.0 mph9.7 kmh 29.38 in994.9 mb 0.00 in0.0 mm 0.00 in0.0 mm 0.03 in0.8 mm
05:15 AM 55.1°F12.8°C 53.4°F11.9°C 94% 1.0 mph S1.6 kmh S 4.0 mph6.4 kmh 29.38 in994.9 mb 0.00 in0.0 mm 0.00 in0.0 mm 0.03 in0.8 mm
05:10 AM 54.9°F12.7°C 53.2°F11.8°C 94% 1.0 mph S1.6 kmh S 3.0 mph4.8 kmh 29.38 in994.9 mb 0.00 in0.0 mm 0.00 in0.0 mm 0.03 in0.8 mm
05:05 AM 54.6°F12.6°C 52.9°F11.6°C 94% 1.0 mph S1.6 kmh S 6.0 mph9.7 kmh 29.38 in994.9 mb 0.00 in0.0 mm 0.00 in0.0 mm 0.03 in0.8 mm
05:00 AM 54.2°F12.3°C 52.5°F11.4°C 94% 2.0 mph S3.2 kmh S 6.0 mph9.7 kmh 29.38 in994.9 mb 0.00 in0.0 mm 0.00 in0.0 mm 0.03 in0.8 mm
04:55 AM 54.0°F12.2°C 52.3°F11.3°C 94% 2.0 mph S3.2 kmh S 6.0 mph9.7 kmh 29.37 in994.6 mb 0.00 in0.0 mm 0.00 in0.0 mm 0.03 in0.8 mm
04:50 AM 54.0°F12.2°C 52.6°F11.4°C 95% 1.0 mph S1.6 kmh S 6.0 mph9.7 kmh 29.38 in994.9 mb 0.00 in0.0 mm 0.00 in0.0 mm 0.03 in0.8 mm
04:45 AM 54.0°F12.2°C 52.6°F11.4°C 95% 1.0 mph S1.6 kmh S 6.0 mph9.7 kmh 29.38 in994.9 mb 0.00 in0.0 mm 0.00 in0.0 mm 0.03 in0.8 mm
04:40 AM 53.9°F12.2°C 52.5°F11.4°C 95% Calm Calm 2.0 mph3.2 kmh 29.38 in994.9 mb 0.00 in0.0 mm 0.00 in0.0 mm 0.03 in0.8 mm
04:35 AM 53.7°F12.1°C 52.3°F11.3°C 95% Calm Calm 2.0 mph3.2 kmh 29.38 in994.9 mb 0.00 in0.0 mm 0.00 in0.0 mm 0.03 in0.8 mm
04:30 AM 53.7°F12.1°C 52.3°F11.3°C 95% Calm Calm 3.0 mph4.8 kmh 29.38 in994.9 mb 0.00 in0.0 mm 0.00 in0.0 mm 0.03 in0.8 mm
04:25 AM 53.5°F11.9°C 52.1°F11.2°C 95% Calm Calm 3.0 mph4.8 kmh 29.38 in994.9 mb 0.00 in0.0 mm 0.00 in0.0 mm 0.03 in0.8 mm
04:20 AM 53.4°F11.9°C 52.0°F11.1°C 95% Calm Calm 2.0 mph3.2 kmh 29.38 in994.9 mb 0.00 in0.0 mm 0.00 in0.0 mm 0.03 in0.8 mm
04:15 AM 53.2°F11.8°C 51.8°F11.0°C 95% Calm Calm 2.0 mph3.2 kmh 29.38 in994.9 mb 0.00 in0.0 mm 0.00 in0.0 mm 0.03 in0.8 mm
04:10 AM 53.1°F11.7°C 51.7°F10.9°C 95% Calm Calm 2.0 mph3.2 kmh 29.38 in994.9 mb 0.00 in0.0 mm 0.00 in0.0 mm 0.03 in0.8 mm
04:05 AM 53.1°F11.7°C 51.7°F10.9°C 95% Calm Calm 4.0 mph6.4 kmh 29.38 in994.9 mb 0.00 in0.0 mm 0.00 in0.0 mm 0.03 in0.8 mm
04:00 AM 53.0°F11.7°C 51.6°F10.9°C 95% 1.0 mph SSW1.6 kmh SSW 5.0 mph8.0 kmh 29.38 in994.9 mb 0.00 in0.0 mm 0.00 in0.0 mm 0.03 in0.8 mm
03:55 AM 52.8°F11.6°C 51.4°F10.8°C 95% 1.0 mph S1.6 kmh S 5.0 mph8.0 kmh 29.38 in994.9 mb 0.00 in0.0 mm 0.00 in0.0 mm 0.03 in0.8 mm
03:50 AM 52.4°F11.3°C 51.0°F10.6°C 95% Calm Calm 5.0 mph8.0 kmh 29.38 in994.9 mb 0.00 in0.0 mm 0.00 in0.0 mm 0.03 in0.8 mm
03:45 AM 52.2°F11.2°C 50.8°F10.4°C 95% Calm Calm 1.0 mph1.6 kmh 29.38 in994.9 mb 0.00 in0.0 mm 0.00 in0.0 mm 0.03 in0.8 mm
03:40 AM 52.2°F11.2°C 50.8°F10.4°C 95% Calm Calm 1.0 mph1.6 kmh 29.38 in994.9 mb 0.00 in0.0 mm 0.00 in0.0 mm 0.03 in0.8 mm
03:35 AM 52.3°F11.3°C 50.9°F10.5°C 95% 1.0 mph SSE1.6 kmh SSE 4.0 mph6.4 kmh 29.38 in994.9 mb 0.00 in0.0 mm 0.00 in0.0 mm 0.03 in0.8 mm
03:30 AM 52.4°F11.3°C 51.0°F10.6°C 95% 1.0 mph SSE1.6 kmh SSE 6.0 mph9.7 kmh 29.38 in994.9 mb 0.00 in0.0 mm 0.00 in0.0 mm 0.03 in0.8 mm
03:25 AM 52.3°F11.3°C 50.9°F10.5°C 95% 1.0 mph SE1.6 kmh SE 6.0 mph9.7 kmh 29.38 in994.9 mb 0.00 in0.0 mm 0.00 in0.0 mm 0.03 in0.8 mm
03:20 AM 52.2°F11.2°C 50.5°F10.3°C 94% Calm Calm 3.0 mph4.8 kmh 29.38 in994.9 mb 0.00 in0.0 mm 0.00 in0.0 mm 0.03 in0.8 mm
03:15 AM 52.2°F11.2°C 50.5°F10.3°C 94% Calm Calm 3.0 mph4.8 kmh 29.38 in994.9 mb 0.00 in0.0 mm 0.00 in0.0 mm 0.03 in0.8 mm
03:10 AM 52.2°F11.2°C 50.5°F10.3°C 94% 1.0 mph SSE1.6 kmh SSE 3.0 mph4.8 kmh 29.38 in994.9 mb 0.00 in0.0 mm 0.00 in0.0 mm 0.03 in0.8 mm
03:05 AM 52.2°F11.2°C 50.5°F10.3°C 94% 1.0 mph SSE1.6 kmh SSE 7.0 mph11.3 kmh 29.38 in994.9 mb 0.00 in0.0 mm 0.00 in0.0 mm 0.03 in0.8 mm
03:00 AM 52.2°F11.2°C 50.5°F10.3°C 94% Calm Calm 7.0 mph11.3 kmh 29.38 in994.9 mb 0.00 in0.0 mm 0.00 in0.0 mm 0.03 in0.8 mm
02:55 AM 52.2°F11.2°C 50.5°F10.3°C 94% Calm Calm 2.0 mph3.2 kmh 29.38 in994.9 mb 0.00 in0.0 mm 0.00 in0.0 mm 0.03 in0.8 mm
02:50 AM 52.2°F11.2°C 50.5°F10.3°C 94% 1.0 mph S1.6 kmh S 2.0 mph3.2 kmh 29.38 in994.9 mb 0.00 in0.0 mm 0.00 in0.0 mm 0.03 in0.8 mm
02:45 AM 52.3°F11.3°C 50.6°F10.3°C 94% 1.0 mph S1.6 kmh S 4.0 mph6.4 kmh 29.38 in994.9 mb 0.00 in0.0 mm 0.00 in0.0 mm 0.03 in0.8 mm
02:40 AM 52.4°F11.3°C 50.7°F10.4°C 94% 1.0 mph S1.6 kmh S 4.0 mph6.4 kmh 29.38 in994.9 mb 0.00 in0.0 mm 0.00 in0.0 mm 0.03 in0.8 mm
02:35 AM 52.4°F11.3°C 50.7°F10.4°C 94% 1.0 mph S1.6 kmh S 3.0 mph4.8 kmh 29.38 in994.9 mb 0.00 in0.0 mm 0.00 in0.0 mm 0.03 in0.8 mm
02:30 AM 52.5°F11.4°C 50.8°F10.4°C 94% 1.0 mph S1.6 kmh S 5.0 mph8.0 kmh 29.38 in994.9 mb 0.00 in0.0 mm 0.00 in0.0 mm 0.03 in0.8 mm
02:25 AM 52.5°F11.4°C 50.8°F10.4°C 94% 1.0 mph S1.6 kmh S 5.0 mph8.0 kmh 29.38 in994.9 mb 0.00 in0.0 mm 0.00 in0.0 mm 0.03 in0.8 mm
02:20 AM 52.4°F11.3°C 50.4°F10.2°C 93% 1.0 mph S1.6 kmh S 5.0 mph8.0 kmh 29.38 in994.9 mb 0.00 in0.0 mm 0.00 in0.0 mm 0.03 in0.8 mm
02:15 AM 52.5°F11.4°C 50.5°F10.3°C 93% 1.0 mph S1.6 kmh S 6.0 mph9.7 kmh 29.39 in995.3 mb 0.00 in0.0 mm 0.00 in0.0 mm 0.03 in0.8 mm
02:10 AM 52.5°F11.4°C 50.5°F10.3°C 93% 1.0 mph S1.6 kmh S 6.0 mph9.7 kmh 29.39 in995.3 mb 0.00 in0.0 mm 0.00 in0.0 mm 0.03 in0.8 mm
02:05 AM 52.6°F11.4°C 50.6°F10.3°C 93% 2.0 mph S3.2 kmh S 6.0 mph9.7 kmh 29.39 in995.3 mb 0.00 in0.0 mm 0.00 in0.0 mm 0.03 in0.8 mm
02:00 AM 52.7°F11.5°C 50.7°F10.4°C 93% 2.0 mph S3.2 kmh S 6.0 mph9.7 kmh 29.39 in995.3 mb 0.00 in0.0 mm 0.00 in0.0 mm 0.03 in0.8 mm
01:55 AM 52.8°F11.6°C 50.8°F10.4°C 93% 2.0 mph S3.2 kmh S 6.0 mph9.7 kmh 29.39 in995.3 mb 0.00 in0.0 mm 0.00 in0.0 mm 0.03 in0.8 mm
01:50 AM 52.8°F11.6°C 50.8°F10.4°C 93% 1.0 mph S1.6 kmh S 6.0 mph9.7 kmh 29.39 in995.3 mb 0.00 in0.0 mm 0.00 in0.0 mm 0.03 in0.8 mm
01:45 AM 52.9°F11.6°C 50.9°F10.5°C 93% 1.0 mph S1.6 kmh S 9.0 mph14.5 kmh 29.38 in994.9 mb 0.00 in0.0 mm 0.00 in0.0 mm 0.03 in0.8 mm
01:40 AM 53.0°F11.7°C 51.0°F10.6°C 93% 2.0 mph S3.2 kmh S 9.0 mph14.5 kmh 29.38 in994.9 mb 0.00 in0.0 mm 0.00 in0.0 mm 0.03 in0.8 mm
01:35 AM 53.0°F11.7°C 51.0°F10.6°C 93% 2.0 mph S3.2 kmh S 9.0 mph14.5 kmh 29.38 in994.9 mb 0.00 in0.0 mm 0.00 in0.0 mm 0.03 in0.8 mm
01:30 AM 53.1°F11.7°C 51.1°F10.6°C 93% 2.0 mph S3.2 kmh S 9.0 mph14.5 kmh 29.38 in994.9 mb 0.00 in0.0 mm 0.00 in0.0 mm 0.03 in0.8 mm
01:25 AM 53.2°F11.8°C 51.2°F10.7°C 93% 2.0 mph S3.2 kmh S 7.0 mph11.3 kmh 29.38 in994.9 mb 0.00 in0.0 mm 0.00 in0.0 mm 0.03 in0.8 mm
01:20 AM 53.3°F11.8°C 51.3°F10.7°C 93% 2.0 mph S3.2 kmh S 7.0 mph11.3 kmh 29.38 in994.9 mb 0.00 in0.0 mm 0.00 in0.0 mm 0.03 in0.8 mm
01:15 AM 53.4°F11.9°C 51.4°F10.8°C 93% 2.0 mph S3.2 kmh S 7.0 mph11.3 kmh 29.38 in994.9 mb 0.00 in0.0 mm 0.00 in0.0 mm 0.03 in0.8 mm
01:10 AM 53.5°F11.9°C 51.5°F10.8°C 93% 2.0 mph S3.2 kmh S 7.0 mph11.3 kmh 29.38 in994.9 mb 0.00 in0.0 mm 0.00 in0.0 mm 0.03 in0.8 mm
01:05 AM 53.6°F12.0°C 51.6°F10.9°C 93% 2.0 mph S3.2 kmh S 6.0 mph9.7 kmh 29.38 in994.9 mb 0.00 in0.0 mm 0.00 in0.0 mm 0.03 in0.8 mm
01:00 AM 53.8°F12.1°C 51.8°F11.0°C 93% 2.0 mph S3.2 kmh S 6.0 mph9.7 kmh 29.38 in994.9 mb 0.00 in0.0 mm 0.00 in0.0 mm 0.03 in0.8 mm
12:55 AM 54.0°F12.2°C 52.0°F11.1°C 93% 2.0 mph S3.2 kmh S 11.0 mph17.7 kmh 29.38 in994.9 mb 0.00 in0.0 mm 0.00 in0.0 mm 0.03 in0.8 mm
12:50 AM 54.2°F12.3°C 52.2°F11.2°C 93% 3.0 mph S4.8 kmh S 11.0 mph17.7 kmh 29.38 in994.9 mb 0.00 in0.0 mm 0.00 in0.0 mm 0.03 in0.8 mm
12:45 AM 54.5°F12.5°C 52.5°F11.4°C 93% 3.0 mph S4.8 kmh S 9.0 mph14.5 kmh 29.38 in994.9 mb 0.00 in0.0 mm 0.00 in0.0 mm 0.03 in0.8 mm
12:40 AM 54.8°F12.7°C 52.8°F11.6°C 93% 2.0 mph S3.2 kmh S 7.0 mph11.3 kmh 29.38 in994.9 mb 0.00 in0.0 mm 0.00 in0.0 mm 0.03 in0.8 mm
12:35 AM 55.1°F12.8°C 53.1°F11.7°C 93% 2.0 mph S3.2 kmh S 7.0 mph11.3 kmh 29.38 in994.9 mb 0.00 in0.0 mm 0.00 in0.0 mm 0.03 in0.8 mm
12:30 AM 55.4°F13.0°C 53.4°F11.9°C 93% 2.0 mph S3.2 kmh S 7.0 mph11.3 kmh 29.38 in994.9 mb 0.01 in0.3 mm 0.00 in0.0 mm 0.03 in0.8 mm
12:25 AM 55.5°F13.1°C 53.5°F11.9°C 93% 2.0 mph S3.2 kmh S 6.0 mph9.7 kmh 29.38 in994.9 mb 0.02 in0.5 mm 0.00 in0.0 mm 0.03 in0.8 mm
12:20 AM 55.7°F13.2°C 53.7°F12.1°C 93% 2.0 mph S3.2 kmh S 6.0 mph9.7 kmh 29.38 in994.9 mb 0.02 in0.5 mm 0.00 in0.0 mm 0.03 in0.8 mm
12:15 AM 55.8°F13.2°C 53.8°F12.1°C 93% 2.0 mph S3.2 kmh S 6.0 mph9.7 kmh 29.37 in994.6 mb 0.03 in0.8 mm 0.00 in0.0 mm 0.03 in0.8 mm
12:10 AM 55.9°F13.3°C 53.9°F12.2°C 93% 2.0 mph S3.2 kmh S 6.0 mph9.7 kmh 29.37 in994.6 mb 0.03 in0.8 mm 0.00 in0.0 mm 0.03 in0.8 mm
12:05 AM 56.2°F13.4°C 54.2°F12.3°C 93% 2.0 mph S3.2 kmh S 8.0 mph12.9 kmh 29.37 in994.6 mb 0.03 in0.8 mm 0.00 in0.0 mm 0.03 in0.8 mm
12:00 AM 56.4°F13.6°C 54.4°F12.4°C 93% 3.0 mph S4.8 kmh S 10.0 mph16.1 kmh 29.37 in994.6 mb 0.03 in0.8 mm 0.00 in0.0 mm 0.03 in0.8 mm